| time (UTC) | temp C | wind direction | speed KPH | gust KPH | rain 1hr cm | rain 24hr cm | rain mn cm | humidity % | barometer mb |
| 20260906155126 | 33 | 105 | 6.4 | 9.7 | 0.00 | 0.00 | 0.00 | 47 | 1011.8 |
| 20260906154621 | 33 | 116 | 4.8 | 11.3 | 0.00 | 0.00 | 0.00 | 48 | 1011.5 |
| 20260906154120 | 33 | 91 | 8.0 | 8.0 | 0.00 | 0.00 | 0.00 | 47 | 1011.6 |
| 20260906153619 | 33 | 94 | 4.8 | 14.5 | 0.00 | 0.00 | 0.00 | 48 | 1011.5 |
| 20260906153114 | 33 | 94 | 3.2 | 11.3 | 0.00 | 0.00 | 0.00 | 48 | 1011.5 |
| 20260906152609 | 33 | 77 | 8.0 | 11.3 | 0.00 | 0.00 | 0.00 | 48 | 1011.5 |
| 20260906152103 | 33 | 129 | 11.3 | 11.3 | 0.00 | 0.00 | 0.00 | 48 | 1011.3 |
| 20260906151558 | 33 | 138 | 9.7 | 11.3 | 0.00 | 0.00 | 0.00 | 48 | 1011.4 |
| 20260906151054 | 33 | 351 | 3.2 | 6.4 | 0.00 | 0.00 | 0.00 | 48 | 1011.5 |
| 20260906150549 | 33 | 140 | 4.8 | 6.4 | 0.00 | 0.00 | 0.00 | 49 | 1011.5 |
| 20260906150044 | 32 | 62 | 8.0 | 8.0 | 0.00 | 0.00 | 0.00 | 50 | 1011.5 |
| 20260906145543 | 32 | 8 | 3.2 | 6.4 | 0.00 | 0.00 | 0.00 | 50 | 1011.3 |
| 20260906145038 | 32 | 130 | 9.7 | 11.3 | 0.00 | 0.00 | 0.00 | 50 | 1011.5 |
| 20260906144532 | 32 | 87 | 3.2 | 8.0 | 0.00 | 0.00 | 0.00 | 52 | 1011.6 |
| 20260906144027 | 32 | 114 | 6.4 | 9.7 | 0.00 | 0.00 | 0.00 | 51 | 1011.4 |
| 20260906143522 | 31 | 60 | 3.2 | 6.4 | 0.00 | 0.00 | 0.00 | 52 | 1011.5 |
| 20260906143019 | 31 | 17 | 3.2 | 9.7 | 0.00 | 0.00 | 0.00 | 52 | 1011.3 |
| 20260906142519 | 32 | 96 | 3.2 | 8.0 | 0.00 | 0.00 | 0.00 | 53 | 1011.6 |
| 20260906142014 | 32 | 100 | 4.8 | 9.7 | 0.00 | 0.00 | 0.00 | 51 | 1011.4 |
| 20260906141513 | 31 | 101 | 3.2 | 9.7 | 0.00 | 0.00 | 0.00 | 55 | 1011.5 |
| 20260906141009 | 31 | 32 | 3.2 | 4.8 | 0.00 | 0.00 | 0.00 | 56 | 1011.3 |
| 20260906140509 | 31 | 99 | 4.8 | 9.7 | 0.00 | 0.00 | 0.00 | 55 | 1011.3 |
| 20260906140008 | 30 | 23 | 3.2 | 6.4 | 0.00 | 0.00 | 0.00 | 59 | 1011.5 |
| 20260906135505 | 29 | 8 | 4.8 | 6.4 | 0.00 | 0.00 | 0.00 | 59 | 1011.3 |
| 20260906135001 | 29 | 21 | 8.0 | 11.3 | 0.00 | 0.00 | 0.00 | 60 | 1011.2 |
| 20260906134456 | 28 | 43 | 4.8 | 9.7 | 0.00 | 0.00 | 0.00 | 62 | 1011.3 |
| 20260906133956 | 29 | 17 | 4.8 | 9.7 | 0.00 | 0.00 | 0.00 | 62 | 1011.5 |
| 20260906133452 | 30 | 357 | 6.4 | 6.4 | 0.00 | 0.00 | 0.00 | 61 | 1011.3 |
| 20260906132947 | 30 | 37 | 4.8 | 6.4 | 0.00 | 0.00 | 0.00 | 60 | 1011.4 |
| 20260906132443 | 30 | 55 | 1.6 | 4.8 | 0.00 | 0.00 | 0.00 | 59 | 1011.5 |
| 20260906131938 | 30 | 269 | 0.0 | 1.6 | 0.00 | 0.00 | 0.00 | 61 | 1011.3 |
| 20260906131433 | 30 | 327 | 1.6 | 3.2 | 0.00 | 0.00 | 0.00 | 61 | 1011.3 |
| 20260906130929 | 30 | 146 | 0.0 | 3.2 | 0.00 | 0.00 | 0.00 | 61 | 1011.4 |
| 20260906130428 | 30 | 147 | 0.0 | 3.2 | 0.00 | 0.00 | 0.00 | 62 | 1011.4 |
| 20260906125929 | 28 | 226 | 1.6 | 3.2 | 0.00 | 0.00 | 0.00 | 66 | 1011.3 |
| 20260906125426 | 27 | 291 | 0.0 | 3.2 | 0.00 | 0.00 | 0.00 | 70 | 1011.3 |
| 20260906124925 | 27 | 348 | 0.0 | 3.2 | 0.00 | 0.00 | 0.00 | 72 | 1011.2 |
| 20260906124421 | 25 | 89 | 0.0 | 3.2 | 0.00 | 0.00 | 0.00 | 75 | 1011.1 |
| 20260906123916 | 25 | 230 | 0.0 | 0.0 | 0.00 | 0.00 | 0.00 | 75 | 1010.9 |
| 20260906123415 | 25 | 303 | 0.0 | 1.6 | 0.00 | 0.00 | 0.00 | 76 | 1010.9 |
| 20260906122915 | 25 | 309 | 0.0 | 0.0 | 0.00 | 0.00 | 0.00 | 78 | 1010.8 |
| 20260906122410 | 24 | 243 | 0.0 | 1.6 | 0.00 | 0.00 | 0.00 | 77 | 1010.7 |
| 20260906121907 | 25 | 205 | 0.0 | 1.6 | 0.00 | 0.00 | 0.00 | 77 | 1010.7 |
| 20260906121403 | 23 | 89 | 0.0 | 1.6 | 0.00 | 0.00 | 0.00 | 79 | 1010.5 |
| 20260906120859 | 23 | 230 | 0.0 | 0.0 | 0.00 | 0.00 | 0.00 | 80 | 1010.5 |
| 20260906120354 | 23 | 89 | 0.0 | 1.6 | 0.00 | 0.00 | 0.00 | 80 | 1010.6 |
| 20260906115850 | 23 | 187 | 0.0 | 1.6 | 0.00 | 0.00 | 0.00 | 79 | 1010.7 |
| 20260906115346 | 23 | 189 | 1.6 | 3.2 | 0.00 | 0.00 | 0.00 | 79 | 1010.6 |
| 20260906114845 | 23 | 247 | 0.0 | 1.6 | 0.00 | 0.00 | 0.00 | 80 | 1010.5 |
| 20260906114340 | 23 | 357 | 0.0 | 1.6 | 0.00 | 0.00 | 0.00 | 82 | 1010.7 |
| 20260906113835 | 23 | 71 | 1.6 | 3.2 | 0.00 | 0.00 | 0.00 | 82 | 1010.7 |
| 20260906113334 | 23 | 55 | 0.0 | 3.2 | 0.00 | 0.00 | 0.00 | 81 | 1010.5 |
| 20260906112829 | 23 | 189 | 3.2 | 4.8 | 0.00 | 0.00 | 0.00 | 80 | 1010.4 |
| 20260906112326 | 23 | 214 | 3.2 | 3.2 | 0.00 | 0.00 | 0.00 | 79 | 1010.5 |
| 20260906111826 | 23 | 246 | 0.0 | 1.6 | 0.00 | 0.00 | 0.00 | 80 | 1010.5 |
| 20260906111326 | 23 | 291 | 0.0 | 3.2 | 0.00 | 0.00 | 0.00 | 80 | 1010.6 |
| 20260906110821 | 23 | 142 | 0.0 | 4.8 | 0.00 | 0.00 | 0.00 | 79 | 1010.4 |
| 20260906110317 | 23 | 20 | 0.0 | 3.2 | 0.00 | 0.00 | 0.00 | 79 | 1010.3 |
| 20260906105815 | 23 | 299 | 0.0 | 3.2 | 0.00 | 0.00 | 0.00 | 79 | 1010.2 |
| 20260906105311 | 23 | 122 | 1.6 | 3.2 | 0.00 | 0.00 | 0.00 | 79 | 1010.5 |
| 20260906104807 | 23 | 231 | 3.2 | 3.2 | 0.00 | 0.00 | 0.00 | 78 | 1010.3 |
| 20260906104305 | 23 | 313 | 3.2 | 3.2 | 0.00 | 0.00 | 0.00 | 78 | 1010.1 |
| 20260906103803 | 24 | 349 | 3.2 | 6.4 | 0.00 | 0.00 | 0.00 | 77 | 1010.1 |
| 20260906103303 | 24 | 7 | 3.2 | 4.8 | 0.00 | 0.00 | 0.00 | 77 | 1010.1 |
| 20260906102759 | 24 | 9 | 6.4 | 8.0 | 0.00 | 0.00 | 0.00 | 76 | 1010.2 |
| 20260906102258 | 24 | 23 | 3.2 | 4.8 | 0.00 | 0.00 | 0.00 | 75 | 1010.3 |
| 20260906101753 | 24 | 356 | 4.8 | 9.7 | 0.00 | 0.00 | 0.00 | 74 | 1009.9 |
| 20260906101248 | 25 | 353 | 8.0 | 14.5 | 0.00 | 0.00 | 0.00 | 73 | 1010.0 |
| 20260906100743 | 24 | 338 | 3.2 | 8.0 | 0.00 | 0.00 | 0.00 | 74 | 1009.9 |
| 20260906100243 | 23 | 14 | 3.2 | 3.2 | 0.00 | 0.00 | 0.00 | 78 | 1010.1 |
| 20260906095738 | 23 | 356 | 3.2 | 3.2 | 0.00 | 0.00 | 0.00 | 77 | 1009.7 |
| 20260906095233 | 23 | 50 | 0.0 | 1.6 | 0.00 | 0.00 | 0.00 | 77 | 1009.7 |
| 20260906094732 | 23 | 343 | 0.0 | 0.0 | 0.00 | 0.00 | 0.00 | 77 | 1009.7 |
| 20260906094228 | 23 | 129 | 0.0 | 1.6 | 0.00 | 0.00 | 0.00 | 76 | 1009.7 |
| 20260906093724 | 23 | 255 | 0.0 | 1.6 | 0.00 | 0.00 | 0.00 | 76 | 1009.7 |
| 20260906093219 | 23 | 229 | 0.0 | 1.6 | 0.00 | 0.00 | 0.00 | 76 | 1009.5 |
| 20260906092715 | 23 | 310 | 1.6 | 1.6 | 0.00 | 0.00 | 0.00 | 76 | 1009.6 |
| 20260906092214 | 23 | 39 | 1.6 | 3.2 | 0.00 | 0.00 | 0.00 | 77 | 1009.6 |
| 20260906091711 | 23 | 174 | 0.0 | 3.2 | 0.00 | 0.00 | 0.00 | 76 | 1009.5 |
| 20260906091207 | 23 | 280 | 0.0 | 1.6 | 0.00 | 0.00 | 0.00 | 76 | 1009.7 |
| 20260906090703 | 23 | 269 | 0.0 | 1.6 | 0.00 | 0.00 | 0.00 | 75 | 1009.7 |
| 20260906090202 | 23 | 269 | 0.0 | 0.0 | 0.00 | 0.00 | 0.00 | 76 | 1009.6 |
| 20260906085701 | 23 | 315 | 0.0 | 1.6 | 0.00 | 0.00 | 0.00 | 76 | 1009.5 |
| 20260906085200 | 23 | 67 | 0.0 | 3.2 | 0.00 | 0.00 | 0.00 | 76 | 1009.5 |
| 20260906084655 | 23 | 195 | 0.0 | 1.6 | 0.00 | 0.00 | 0.00 | 76 | 1009.6 |
| 20260906084154 | 23 | 246 | 0.0 | 1.6 | 0.00 | 0.00 | 0.00 | 75 | 1009.5 |
| 20260906083649 | 23 | 37 | 0.0 | 0.0 | 0.00 | 0.00 | 0.00 | 75 | 1009.6 |
| 20260906083145 | 24 | 53 | 1.6 | 3.2 | 0.00 | 0.00 | 0.00 | 74 | 1009.6 |
| 20260906082640 | 24 | 104 | 0.0 | 1.6 | 0.00 | 0.00 | 0.00 | 74 | 1009.7 |
| 20260906082136 | 24 | 253 | 0.0 | 1.6 | 0.00 | 0.00 | 0.00 | 74 | 1009.5 |
| 20260906081632 | 24 | 75 | 0.0 | 1.6 | 0.00 | 0.00 | 0.00 | 74 | 1009.5 |
| 20260906081126 | 24 | 224 | 0.0 | 1.6 | 0.00 | 0.00 | 0.00 | 74 | 1009.3 |
| 20260906080623 | 24 | 209 | 1.6 | 3.2 | 0.00 | 0.00 | 0.00 | 74 | 1009.4 |
| 20260906080119 | 24 | 17 | 3.2 | 3.2 | 0.00 | 0.00 | 0.00 | 75 | 1009.2 |
| 20260906075618 | 24 | 224 | 0.0 | 1.6 | 0.00 | 0.00 | 0.00 | 74 | 1009.5 |
| 20260906075113 | 25 | 205 | 0.0 | 1.6 | 0.00 | 0.00 | 0.00 | 74 | 1009.5 |
| 20260906074608 | 25 | 322 | 0.0 | 0.0 | 0.00 | 0.00 | 0.00 | 72 | 1009.5 |
| 20260906074107 | 25 | 15 | 0.0 | 0.0 | 0.00 | 0.00 | 0.00 | 72 | 1009.6 |
| 20260906073602 | 25 | 217 | 0.0 | 0.0 | 0.00 | 0.00 | 0.00 | 72 | 1009.5 |
| 20260906073058 | 25 | 217 | 0.0 | 1.6 | 0.00 | 0.00 | 0.00 | 74 | 1009.5 |
| 20260906072552 | 25 | 333 | 0.0 | 0.0 | 0.00 | 0.00 | 0.00 | 71 | 1009.8 |
| 20260906072049 | 25 | 333 | 0.0 | 0.0 | 0.00 | 0.00 | 0.00 | 72 | 1009.9 |
| 20260906071545 | 25 | 333 | 0.0 | 0.0 | 0.00 | 0.00 | 0.00 | 72 | 1009.7 |
| 20260906071039 | 25 | 333 | 0.0 | 0.0 | 0.00 | 0.00 | 0.00 | 72 | 1009.8 |
| 20260906070536 | 25 | 333 | 0.0 | 0.0 | 0.00 | 0.00 | 0.00 | 72 | 1009.8 |
| 20260906070031 | 25 | 255 | 0.0 | 0.0 | 0.00 | 0.00 | 0.00 | 72 | 1009.7 |
| 20260906065531 | 25 | 255 | 0.0 | 0.0 | 0.00 | 0.00 | 0.00 | 71 | 1009.8 |
| 20260906065027 | 25 | 235 | 0.0 | 0.0 | 0.00 | 0.00 | 0.00 | 71 | 1009.7 |
| 20260906064522 | 25 | 50 | 0.0 | 0.0 | 0.00 | 0.00 | 0.00 | 70 | 1009.8 |
| 20260906064023 | 25 | 50 | 0.0 | 0.0 | 0.00 | 0.00 | 0.00 | 71 | 1009.9 |
| 20260906063518 | 25 | 217 | 0.0 | 0.0 | 0.00 | 0.00 | 0.00 | 70 | 1010.0 |
| 20260906063014 | 25 | 256 | 0.0 | 0.0 | 0.00 | 0.00 | 0.00 | 70 | 1009.9 |
| 20260906062509 | 25 | 256 | 0.0 | 0.0 | 0.00 | 0.00 | 0.00 | 69 | 1010.0 |
| 20260906062003 | 25 | 256 | 0.0 | 0.0 | 0.00 | 0.00 | 0.00 | 69 | 1010.1 |
| 20260906061459 | 25 | 154 | 0.0 | 0.0 | 0.00 | 0.00 | 0.00 | 70 | 1009.9 |
| 20260906060953 | 25 | 205 | 0.0 | 0.0 | 0.00 | 0.00 | 0.00 | 69 | 1010.2 |
| 20260906060450 | 25 | 221 | 0.0 | 1.6 | 0.00 | 0.00 | 0.00 | 69 | 1009.9 |
| 20260906055947 | 25 | 44 | 0.0 | 0.0 | 0.00 | 0.00 | 0.00 | 70 | 1010.1 |
| 20260906055443 | 25 | 44 | 0.0 | 0.0 | 0.00 | 0.00 | 0.00 | 69 | 1010.1 |
| 20260906054938 | 25 | 217 | 0.0 | 0.0 | 0.00 | 0.00 | 0.00 | 69 | 1010.2 |
| 20260906054432 | 25 | 217 | 0.0 | 1.6 | 0.00 | 0.00 | 0.00 | 69 | 1010.0 |
| 20260906053928 | 25 | 142 | 0.0 | 0.0 | 0.00 | 0.00 | 0.00 | 69 | 1010.1 |
| 20260906053424 | 25 | 343 | 0.0 | 0.0 | 0.00 | 0.00 | 0.00 | 70 | 1010.3 |
| 20260906052920 | 25 | 297 | 0.0 | 0.0 | 0.00 | 0.00 | 0.00 | 69 | 1010.2 |
| 20260906052416 | 25 | 48 | 0.0 | 0.0 | 0.00 | 0.00 | 0.00 | 69 | 1010.0 |
| 20260906051912 | 25 | 224 | 0.0 | 1.6 | 0.00 | 0.00 | 0.00 | 69 | 1010.0 |
| 20260906051412 | 25 | 213 | 0.0 | 3.2 | 0.00 | 0.00 | 0.00 | 69 | 1010.0 |
| 20260906050909 | 25 | 326 | 0.0 | 0.0 | 0.00 | 0.00 | 0.00 | 69 | 1009.9 |
| 20260906050408 | 25 | 309 | 0.0 | 0.0 | 0.00 | 0.00 | 0.00 | 69 | 1009.9 |
| 20260906045907 | 26 | 29 | 0.0 | 1.6 | 0.00 | 0.00 | 0.00 | 68 | 1010.0 |
| 20260906045406 | 26 | 104 | 0.0 | 0.0 | 0.00 | 0.00 | 0.00 | 67 | 1010.0 |
| 20260906044902 | 26 | 230 | 0.0 | 0.0 | 0.00 | 0.00 | 0.00 | 67 | 1010.0 |
| 20260906044403 | 26 | 230 | 0.0 | 1.6 | 0.00 | 0.00 | 0.00 | 65 | 1010.0 |
| 20260906043858 | 26 | 202 | 0.0 | 1.6 | 0.00 | 0.00 | 0.00 | 66 | 1010.0 |
| 20260906043354 | 26 | 341 | 0.0 | 1.6 | 0.00 | 0.00 | 0.00 | 65 | 1010.0 |
| 20260906042849 | 26 | 55 | 0.0 | 1.6 | 0.00 | 0.00 | 0.00 | 65 | 1010.0 |
| 20260906042348 | 26 | 209 | 0.0 | 1.6 | 0.00 | 0.00 | 0.00 | 66 | 1010.0 |
| 20260906041844 | 26 | 50 | 0.0 | 1.6 | 0.00 | 0.00 | 0.00 | 65 | 1009.9 |
| 20260906041339 | 27 | 129 | 0.0 | 1.6 | 0.00 | 0.00 | 0.00 | 64 | 1010.0 |
| 20260906040839 | 27 | 55 | 0.0 | 1.6 | 0.00 | 0.00 | 0.00 | 63 | 1010.1 |
| 20260906040334 | 27 | 250 | 0.0 | 1.6 | 0.00 | 0.00 | 0.00 | 61 | 1010.0 |
| 20260906035830 | 27 | 12 | 1.6 | 3.2 | 0.00 | 0.00 | 0.00 | 65 | 1009.9 |
| 20260906035325 | 28 | 234 | 1.6 | 3.2 | 0.00 | 0.00 | 0.00 | 61 | 1010.0 |
| 20260906034820 | 28 | 230 | 0.0 | 3.2 | 0.00 | 0.00 | 0.00 | 59 | 1010.1 |
| 20260906034315 | 28 | 211 | 1.6 | 1.6 | 0.00 | 0.00 | 0.00 | 57 | 1009.9 |
| 20260906033811 | 28 | 330 | 0.0 | 1.6 | 0.00 | 0.00 | 0.00 | 57 | 1010.1 |
| 20260906033310 | 29 | 193 | 0.0 | 1.6 | 0.00 | 0.00 | 0.00 | 57 | 1009.8 |
| 20260906032807 | 28 | 322 | 1.6 | 3.2 | 0.00 | 0.00 | 0.00 | 59 | 1010.1 |
| 20260906032305 | 28 | 181 | 0.0 | 1.6 | 0.00 | 0.00 | 0.00 | 61 | 1010.0 |
| 20260906031757 | 27 | 325 | 0.0 | 3.2 | 0.00 | 0.00 | 0.00 | 64 | 1010.1 |
| 20260906031253 | 27 | 326 | 1.6 | 1.6 | 0.00 | 0.00 | 0.00 | 64 | 1010.0 |
| 20260906030752 | 27 | 142 | 0.0 | 1.6 | 0.00 | 0.00 | 0.00 | 65 | 1009.9 |
| 20260906030248 | 27 | 297 | 0.0 | 1.6 | 0.00 | 0.00 | 0.00 | 64 | 1009.8 |
| 20260906025747 | 27 | 222 | 3.2 | 3.2 | 0.00 | 0.00 | 0.00 | 65 | 1009.9 |
| 20260906025241 | 27 | 37 | 0.0 | 3.2 | 0.00 | 0.00 | 0.00 | 64 | 1009.8 |
| 20260906024740 | 26 | 352 | 3.2 | 4.8 | 0.00 | 0.00 | 0.00 | 65 | 1010.0 |
| 20260906024239 | 26 | 173 | 0.0 | 1.6 | 0.00 | 0.00 | 0.00 | 65 | 1009.9 |
| 20260906023735 | 26 | 230 | 0.0 | 1.6 | 0.00 | 0.00 | 0.00 | 65 | 1009.6 |
| 20260906023230 | 26 | 203 | 1.6 | 1.6 | 0.00 | 0.00 | 0.00 | 64 | 1009.6 |
| 20260906022726 | 26 | 343 | 0.0 | 0.0 | 0.00 | 0.00 | 0.00 | 64 | 1009.5 |
| 20260906022221 | 26 | 224 | 0.0 | 0.0 | 0.00 | 0.00 | 0.00 | 64 | 1009.2 |
| 20260906021717 | 26 | 224 | 0.0 | 0.0 | 0.00 | 0.00 | 0.00 | 63 | 1009.3 |
| 20260906021216 | 27 | 217 | 0.0 | 1.6 | 0.00 | 0.00 | 0.00 | 63 | 1009.2 |
| 20260906020711 | 26 | 50 | 0.0 | 0.0 | 0.00 | 0.00 | 0.00 | 62 | 1008.9 |
| 20260906020205 | 27 | 50 | 0.0 | 0.0 | 0.00 | 0.00 | 0.00 | 62 | 1009.1 |
| 20260906015700 | 27 | 217 | 0.0 | 0.0 | 0.00 | 0.00 | 0.00 | 62 | 1008.8 |
| 20260906015159 | 27 | 231 | 0.0 | 0.0 | 0.00 | 0.00 | 0.00 | 62 | 1008.9 |
| 20260906014658 | 27 | 25 | 0.0 | 1.6 | 0.00 | 0.00 | 0.00 | 62 | 1008.9 |
| 20260906014155 | 27 | 37 | 0.0 | 0.0 | 0.00 | 0.00 | 0.00 | 62 | 1009.0 |
| 20260906013650 | 27 | 212 | 0.0 | 1.6 | 0.00 | 0.00 | 0.00 | 62 | 1008.9 |
| 20260906013146 | 27 | 202 | 1.6 | 3.2 | 0.00 | 0.00 | 0.00 | 61 | 1008.8 |
| 20260906012646 | 27 | 212 | 0.0 | 1.6 | 0.00 | 0.00 | 0.00 | 60 | 1008.7 |
| 20260906012145 | 27 | 333 | 0.0 | 0.0 | 0.00 | 0.00 | 0.00 | 60 | 1008.7 |
| 20260906011642 | 27 | 154 | 0.0 | 0.0 | 0.00 | 0.00 | 0.00 | 61 | 1008.8 |
| 20260906011136 | 27 | 22 | 0.0 | 0.0 | 0.00 | 0.00 | 0.00 | 61 | 1008.6 |
| 20260906010631 | 27 | 32 | 0.0 | 0.0 | 0.00 | 0.00 | 0.00 | 61 | 1008.6 |
| 20260906010128 | 27 | 217 | 0.0 | 0.0 | 0.00 | 0.00 | 0.00 | 60 | 1008.4 |
| 20260906005627 | 27 | 217 | 0.0 | 0.0 | 0.00 | 0.00 | 0.00 | 59 | 1008.1 |
| 20260906005127 | 28 | 217 | 0.0 | 3.2 | 0.00 | 0.00 | 0.00 | 60 | 1008.4 |
| 20260906004626 | 28 | 217 | 0.0 | 1.6 | 0.00 | 0.00 | 0.00 | 58 | 1008.1 |
| 20260906004121 | 28 | 89 | 0.0 | 0.0 | 0.00 | 0.00 | 0.00 | 58 | 1008.4 |
| 20260906003616 | 28 | 205 | 0.0 | 0.0 | 0.00 | 0.00 | 0.00 | 57 | 1008.6 |
| 20260906003113 | 29 | 230 | 0.0 | 0.0 | 0.00 | 0.00 | 0.00 | 55 | 1008.8 |
| 20260906002612 | 30 | 50 | 0.0 | 1.6 | 0.00 | 0.00 | 0.00 | 54 | 1008.8 |
| 20260906002108 | 30 | 41 | 1.6 | 3.2 | 0.00 | 0.00 | 0.00 | 53 | 1008.6 |
| 20260906001603 | 30 | 117 | 0.0 | 0.0 | 0.00 | 0.00 | 0.00 | 51 | 1008.7 |
| 20260906001103 | 30 | 37 | 0.0 | 1.6 | 0.00 | 0.00 | 0.00 | 51 | 1008.8 |
| 20260906000559 | 30 | 224 | 0.0 | 3.2 | 0.00 | 0.00 | 0.00 | 50 | 1008.7 |
| 20260906000054 | 30 | 15 | 3.2 | 3.2 | 0.00 | 0.00 | 0.00 | 51 | 1008.8 |
| 20260905235553 | 31 | 35 | 3.2 | 6.4 | 0.00 | 0.00 | 0.00 | 50 | 1008.9 |
| 20260905235048 | 31 | 356 | 1.6 | 1.6 | 0.00 | 0.00 | 0.00 | 48 | 1008.8 |
| 20260905234543 | 32 | 29 | 4.8 | 4.8 | 0.00 | 0.00 | 0.00 | 46 | 1008.7 |
| 20260905234039 | 32 | 29 | 3.2 | 3.2 | 0.00 | 0.00 | 0.00 | 45 | 1008.8 |
| 20260905233538 | 32 | 209 | 3.2 | 6.4 | 0.00 | 0.00 | 0.00 | 45 | 1008.9 |
| 20260905233038 | 32 | 234 | 4.8 | 4.8 | 0.00 | 0.00 | 0.00 | 45 | 1008.8 |
| 20260905232534 | 32 | 161 | 0.0 | 4.8 | 0.00 | 0.00 | 0.00 | 45 | 1009.0 |
| 20260905232029 | 32 | 321 | 0.0 | 4.8 | 0.00 | 0.00 | 0.00 | 47 | 1008.9 |
| 20260905231524 | 32 | 238 | 0.0 | 3.2 | 0.00 | 0.00 | 0.00 | 47 | 1008.9 |
| 20260905231021 | 32 | 188 | 0.0 | 8.0 | 0.00 | 0.00 | 0.00 | 46 | 1008.9 |
| 20260905230520 | 32 | 229 | 0.0 | 3.2 | 0.00 | 0.00 | 0.00 | 44 | 1008.8 |
| 20260905230018 | 33 | 219 | 1.6 | 3.2 | 0.00 | 0.00 | 0.00 | 44 | 1008.7 |
| 20260905225513 | 33 | 335 | 3.2 | 6.4 | 0.00 | 0.00 | 0.00 | 43 | 1008.7 |
| 20260905225009 | 33 | 349 | 4.8 | 6.4 | 0.00 | 0.00 | 0.00 | 43 | 1008.7 |
| 20260905224503 | 33 | 354 | 6.4 | 9.7 | 0.00 | 0.00 | 0.00 | 43 | 1008.5 |
| 20260905224002 | 33 | 357 | 4.8 | 9.7 | 0.00 | 0.00 | 0.00 | 43 | 1008.4 |
| 20260905223501 | 33 | 0 | 4.8 | 9.7 | 0.00 | 0.00 | 0.00 | 42 | 1008.5 |
| 20260905222955 | 33 | 21 | 9.7 | 9.7 | 0.00 | 0.00 | 0.00 | 42 | 1008.3 |
| 20260905222455 | 33 | 356 | 6.4 | 9.7 | 0.00 | 0.00 | 0.00 | 41 | 1008.3 |
| 20260905221951 | 34 | 13 | 6.4 | 12.9 | 0.00 | 0.00 | 0.00 | 40 | 1008.4 |
| 20260905221447 | 35 | 23 | 6.4 | 12.9 | 0.00 | 0.00 | 0.00 | 39 | 1008.4 |
| 20260905220943 | 35 | 11 | 9.7 | 19.3 | 0.00 | 0.00 | 0.00 | 38 | 1008.1 |
| 20260905220439 | 35 | 36 | 9.7 | 16.1 | 0.00 | 0.00 | 0.00 | 38 | 1008.1 |
| 20260905215938 | 35 | 346 | 9.7 | 12.9 | 0.00 | 0.00 | 0.00 | 38 | 1008.1 |
| 20260905215434 | 35 | 34 | 9.7 | 14.5 | 0.00 | 0.00 | 0.00 | 37 | 1008.1 |
| 20260905214930 | 35 | 34 | 9.7 | 16.1 | 0.00 | 0.00 | 0.00 | 37 | 1008.4 |
| 20260905214426 | 35 | 38 | 11.3 | 16.1 | 0.00 | 0.00 | 0.00 | 37 | 1008.0 |
| 20260905213926 | 35 | 48 | 6.4 | 12.9 | 0.00 | 0.00 | 0.00 | 37 | 1008.1 |
| 20260905213422 | 35 | 352 | 9.7 | 14.5 | 0.00 | 0.00 | 0.00 | 36 | 1008.3 |
| 20260905212917 | 36 | 354 | 12.9 | 17.7 | 0.00 | 0.00 | 0.00 | 32 | 1008.5 |
| 20260905212412 | 37 | 355 | 3.2 | 8.0 | 0.00 | 0.00 | 0.00 | 30 | 1008.3 |
| 20260905211911 | 37 | 28 | 8.0 | 8.0 | 0.00 | 0.00 | 0.00 | 29 | 1008.1 |
| 20260905211407 | 37 | 71 | 6.4 | 6.4 | 0.00 | 0.00 | 0.00 | 30 | 1008.1 |
| 20260905210903 | 37 | 35 | 11.3 | 16.1 | 0.00 | 0.00 | 0.00 | 30 | 1008.3 |
| 20260905210403 | 37 | 77 | 3.2 | 8.0 | 0.00 | 0.00 | 0.00 | 29 | 1008.4 |
| 20260905205902 | 37 | 10 | 3.2 | 11.3 | 0.00 | 0.00 | 0.00 | 29 | 1008.4 |
| 20260905205357 | 37 | 124 | 4.8 | 16.1 | 0.00 | 0.00 | 0.00 | 28 | 1008.4 |
| 20260905204855 | 38 | 173 | 3.2 | 12.9 | 0.00 | 0.00 | 0.00 | 28 | 1008.4 |
| 20260905204352 | 38 | 169 | 0.0 | 9.7 | 0.00 | 0.00 | 0.00 | 29 | 1008.5 |
| 20260905203851 | 37 | 28 | 3.2 | 11.3 | 0.00 | 0.00 | 0.00 | 29 | 1008.8 |
| 20260905203347 | 37 | 86 | 14.5 | 14.5 | 0.00 | 0.00 | 0.00 | 29 | 1008.7 |
| 20260905202843 | 37 | 153 | 4.8 | 9.7 | 0.00 | 0.00 | 0.00 | 29 | 1008.9 |
| 20260905202343 | 37 | 37 | 8.0 | 14.5 | 0.00 | 0.00 | 0.00 | 30 | 1009.0 |
| 20260905201839 | 37 | 2 | 8.0 | 11.3 | 0.00 | 0.00 | 0.00 | 30 | 1008.9 |
| 20260905201334 | 37 | 35 | 19.3 | 22.5 | 0.00 | 0.00 | 0.00 | 29 | 1008.9 |
| 20260905200833 | 37 | 16 | 16.1 | 17.7 | 0.00 | 0.00 | 0.00 | 30 | 1009.1 |
| 20260905200330 | 38 | 45 | 14.5 | 14.5 | 0.00 | 0.00 | 0.00 | 29 | 1009.1 |
| 20260905195827 | 38 | 289 | 3.2 | 6.4 | 0.00 | 0.00 | 0.00 | 29 | 1009.3 |
| 20260905195323 | 37 | 163 | 8.0 | 14.5 | 0.00 | 0.00 | 0.00 | 29 | 1009.2 |
| 20260905194819 | 37 | 224 | 8.0 | 16.1 | 0.00 | 0.00 | 0.00 | 30 | 1009.3 |
| 20260905194319 | 37 | 166 | 11.3 | 14.5 | 0.00 | 0.00 | 0.00 | 29 | 1009.4 |
| 20260905193818 | 37 | 225 | 3.2 | 6.4 | 0.00 | 0.00 | 0.00 | 30 | 1009.4 |
| 20260905193313 | 37 | 180 | 4.8 | 8.0 | 0.00 | 0.00 | 0.00 | 30 | 1009.6 |
| 20260905192808 | 37 | 118 | 6.4 | 14.5 | 0.00 | 0.00 | 0.00 | 31 | 1009.7 |
| 20260905192306 | 37 | 193 | 9.7 | 11.3 | 0.00 | 0.00 | 0.00 | 31 | 1009.5 |
| 20260905191803 | 37 | 176 | 3.2 | 12.9 | 0.00 | 0.00 | 0.00 | 31 | 1009.5 |
| 20260905191302 | 37 | 132 | 11.3 | 14.5 | 0.00 | 0.00 | 0.00 | 30 | 1009.7 |
| 20260905190801 | 37 | 196 | 11.3 | 11.3 | 0.00 | 0.00 | 0.00 | 31 | 1009.9 |
| 20260905190301 | 37 | 50 | 6.4 | 12.9 | 0.00 | 0.00 | 0.00 | 30 | 1010.1 |
| 20260905185800 | 37 | 149 | 4.8 | 11.3 | 0.00 | 0.00 | 0.00 | 30 | 1010.0 |
| 20260905185254 | 37 | 330 | 4.8 | 6.4 | 0.00 | 0.00 | 0.00 | 31 | 1010.1 |
| 20260905184754 | 37 | 138 | 3.2 | 14.5 | 0.00 | 0.00 | 0.00 | 31 | 1010.0 |
| 20260905184254 | 37 | 107 | 6.4 | 14.5 | 0.00 | 0.00 | 0.00 | 30 | 1010.3 |
| 20260905183753 | 37 | 201 | 6.4 | 8.0 | 0.00 | 0.00 | 0.00 | 31 | 1010.2 |
| 20260905183249 | 37 | 17 | 4.8 | 8.0 | 0.00 | 0.00 | 0.00 | 31 | 1010.5 |
| 20260905182748 | 36 | 152 | 9.7 | 12.9 | 0.00 | 0.00 | 0.00 | 33 | 1010.3 |
| 20260905182247 | 36 | 180 | 3.2 | 9.7 | 0.00 | 0.00 | 0.00 | 33 | 1010.4 |
| 20260905181743 | 37 | 234 | 8.0 | 11.3 | 0.00 | 0.00 | 0.00 | 31 | 1010.5 |
| 20260905181242 | 36 | 184 | 3.2 | 9.7 | 0.00 | 0.00 | 0.00 | 32 | 1010.8 |
| 20260905180737 | 36 | 23 | 9.7 | 16.1 | 0.00 | 0.00 | 0.00 | 34 | 1010.8 |
| 20260905180232 | 36 | 79 | 3.2 | 9.7 | 0.00 | 0.00 | 0.00 | 33 | 1010.8 |
| 20260905175732 | 35 | 73 | 11.3 | 12.9 | 0.00 | 0.00 | 0.00 | 34 | 1011.1 |
| 20260905175227 | 35 | 180 | 0.0 | 6.4 | 0.00 | 0.00 | 0.00 | 35 | 1010.7 |
| 20260905174722 | 35 | 244 | 3.2 | 8.0 | 0.00 | 0.00 | 0.00 | 36 | 1010.8 |
| 20260905174218 | 35 | 325 | 8.0 | 12.9 | 0.00 | 0.00 | 0.00 | 36 | 1011.1 |
| 20260905173714 | 35 | 68 | 14.5 | 16.1 | 0.00 | 0.00 | 0.00 | 36 | 1011.3 |
| 20260905173210 | 35 | 75 | 12.9 | 17.7 | 0.00 | 0.00 | 0.00 | 36 | 1011.1 |
| 20260905172709 | 36 | 6 | 8.0 | 14.5 | 0.00 | 0.00 | 0.00 | 35 | 1011.2 |
| 20260905172203 | 36 | 110 | 4.8 | 9.7 | 0.00 | 0.00 | 0.00 | 35 | 1011.3 |
| 20260905171659 | 36 | 17 | 6.4 | 9.7 | 0.00 | 0.00 | 0.00 | 37 | 1011.3 |
| 20260905171155 | 36 | 38 | 6.4 | 9.7 | 0.00 | 0.00 | 0.00 | 37 | 1011.2 |
| 20260905170652 | 36 | 168 | 6.4 | 14.5 | 0.00 | 0.00 | 0.00 | 37 | 1011.3 |
| 20260905170152 | 36 | 137 | 4.8 | 9.7 | 0.00 | 0.00 | 0.00 | 36 | 1011.4 |
| 20260905165651 | 36 | 148 | 8.0 | 9.7 | 0.00 | 0.00 | 0.00 | 37 | 1011.6 |
| 20260905165147 | 36 | 35 | 3.2 | 6.4 | 0.00 | 0.00 | 0.00 | 37 | 1011.6 |
| 20260905164642 | 35 | 86 | 4.8 | 9.7 | 0.00 | 0.00 | 0.00 | 38 | 1011.5 |
| 20260905164141 | 36 | 135 | 6.4 | 6.4 | 0.00 | 0.00 | 0.00 | 38 | 1011.6 |
| 20260905163637 | 36 | 256 | 3.2 | 6.4 | 0.00 | 0.00 | 0.00 | 38 | 1011.7 |
| 20260905163134 | 36 | 297 | 6.4 | 6.4 | 0.00 | 0.00 | 0.00 | 36 | 1011.6 |
| 20260905162630 | 35 | 96 | 4.8 | 8.0 | 0.00 | 0.00 | 0.00 | 37 | 1011.8 |
| 20260905162129 | 35 | 324 | 3.2 | 8.0 | 0.00 | 0.00 | 0.00 | 38 | 1011.7 |
| 20260905161628 | 35 | 202 | 8.0 | 8.0 | 0.00 | 0.00 | 0.00 | 41 | 1012.0 |
| 20260905161127 | 35 | 134 | 6.4 | 8.0 | 0.00 | 0.00 | 0.00 | 41 | 1011.9 |
| 20260905160627 | 35 | 80 | 0.0 | 4.8 | 0.00 | 0.00 | 0.00 | 41 | 1011.7 |
| 20260905160127 | 34 | 114 | 0.0 | 6.4 | 0.00 | 0.00 | 0.00 | 44 | 1011.8 |
| 20260905155626 | 34 | 252 | 3.2 | 16.1 | 0.00 | 0.00 | 0.00 | 45 | 1012.0 |